createdAt,value
2017-11-09T00:00:06.207Z,6.20
2017-11-09T00:02:35.361Z,6.30
2017-11-09T00:05:09.965Z,6.40
2017-11-09T00:07:38.338Z,6.40
2017-11-09T00:10:06.717Z,6.30
2017-11-09T00:12:39.564Z,6.30
2017-11-09T00:15:08.700Z,6.20
2017-11-09T00:17:39.638Z,6.20
2017-11-09T00:20:08.056Z,6.00
2017-11-09T00:22:37.299Z,5.90
2017-11-09T00:25:05.695Z,5.90
2017-11-09T00:27:34.066Z,5.90
2017-11-09T00:30:02.761Z,5.90
2017-11-09T00:32:31.144Z,5.90
2017-11-09T00:34:59.522Z,5.90
2017-11-09T00:37:27.937Z,5.90
2017-11-09T00:39:57.167Z,5.80
2017-11-09T00:42:25.872Z,5.80
2017-11-09T00:44:54.317Z,6.00
2017-11-09T00:47:23.487Z,6.20
2017-11-09T00:49:52.648Z,6.30
2017-11-09T00:52:21.018Z,6.30
2017-11-09T00:54:49.809Z,6.20
2017-11-09T00:57:18.179Z,6.10
2017-11-09T00:59:46.547Z,6.10
2017-11-09T01:02:14.942Z,6.10
2017-11-09T01:04:43.345Z,6.00
2017-11-09T01:07:11.911Z,5.90
2017-11-09T01:09:40.279Z,6.00
2017-11-09T01:12:08.675Z,6.00
2017-11-09T01:14:37.068Z,6.00
2017-11-09T01:17:06.224Z,5.90
2017-11-09T01:19:34.642Z,5.90
2017-11-09T01:22:03.022Z,5.80
2017-11-09T01:24:31.402Z,5.90
2017-11-09T01:26:59.830Z,5.90
2017-11-09T01:29:28.196Z,5.90
2017-11-09T01:31:57.332Z,5.90
2017-11-09T01:34:25.735Z,5.80
2017-11-09T01:36:54.488Z,5.90
2017-11-09T01:39:22.880Z,5.90
2017-11-09T01:41:51.291Z,5.90
2017-11-09T01:44:21.172Z,6.00
2017-11-09T01:46:49.601Z,6.00
2017-11-09T01:49:17.967Z,5.90
2017-11-09T01:51:46.478Z,5.90
2017-11-09T01:54:15.615Z,5.90
2017-11-09T01:56:43.994Z,5.90
2017-11-09T01:59:12.421Z,6.10
2017-11-09T02:01:41.608Z,6.10
2017-11-09T02:04:10.959Z,6.20
2017-11-09T02:06:39.339Z,6.20
2017-11-09T02:09:07.735Z,6.00
2017-11-09T02:11:36.149Z,5.80
2017-11-09T02:14:05.293Z,5.80
2017-11-09T02:16:34.084Z,5.70
2017-11-09T02:19:02.485Z,5.80
2017-11-09T02:21:30.880Z,5.70
2017-11-09T02:24:00.084Z,5.70
2017-11-09T02:26:28.463Z,5.70
2017-11-09T02:28:57.111Z,5.80
2017-11-09T02:31:25.499Z,5.70
2017-11-09T02:33:53.877Z,5.60
2017-11-09T02:36:22.270Z,5.60
2017-11-09T02:38:50.660Z,5.60
2017-11-09T02:41:19.072Z,5.40
2017-11-09T02:43:47.444Z,5.40
2017-11-09T02:46:16.576Z,5.50
2017-11-09T02:48:44.984Z,5.50
2017-11-09T02:51:13.374Z,5.60
2017-11-09T02:53:42.830Z,5.60
2017-11-09T02:56:11.223Z,5.50
2017-11-09T02:58:39.599Z,5.40
2017-11-09T03:01:08.015Z,5.40
2017-11-09T03:03:36.396Z,5.50
2017-11-09T03:06:05.784Z,5.60
2017-11-09T03:08:34.177Z,5.70
2017-11-09T03:11:03.320Z,5.70
2017-11-09T03:13:31.717Z,5.70
2017-11-09T03:16:00.140Z,5.70
2017-11-09T03:18:29.593Z,5.60
2017-11-09T03:20:57.968Z,5.60
2017-11-09T03:23:26.340Z,5.70
2017-11-09T03:25:54.742Z,5.70
2017-11-09T03:28:24.626Z,5.70
2017-11-09T03:30:53.038Z,5.70
2017-11-09T03:33:21.424Z,5.90
2017-11-09T03:35:49.795Z,6.00
2017-11-09T03:38:18.183Z,6.10
2017-11-09T03:40:46.567Z,6.10
2017-11-09T03:43:14.999Z,6.10
2017-11-09T03:45:43.375Z,6.20
2017-11-09T03:48:11.749Z,6.10
2017-11-09T03:50:40.149Z,6.10
2017-11-09T03:53:08.535Z,6.10
2017-11-09T03:55:37.115Z,6.20
2017-11-09T03:58:05.483Z,6.00
2017-11-09T04:00:33.848Z,6.00
2017-11-09T04:03:02.239Z,6.10
2017-11-09T04:05:30.607Z,6.00
2017-11-09T04:07:59.383Z,5.90
2017-11-09T04:10:27.756Z,5.90
2017-11-09T04:12:56.138Z,5.80
2017-11-09T04:15:24.532Z,5.70
2017-11-09T04:17:52.912Z,5.70
2017-11-09T04:20:21.315Z,5.60
2017-11-09T04:22:49.705Z,5.60
2017-11-09T04:25:18.071Z,5.60
2017-11-09T04:27:46.462Z,5.60
2017-11-09T04:30:16.355Z,5.60
2017-11-09T04:32:44.939Z,5.60
2017-11-09T04:35:13.316Z,5.80
2017-11-09T04:37:41.692Z,5.80
2017-11-09T04:40:10.084Z,6.00
2017-11-09T04:42:38.487Z,6.00
2017-11-09T04:45:07.027Z,6.10
2017-11-09T04:47:35.404Z,6.20
2017-11-09T04:50:03.795Z,6.10
2017-11-09T04:52:32.192Z,6.20
2017-11-09T04:55:00.565Z,6.20
2017-11-09T04:57:29.209Z,6.00
2017-11-09T04:59:57.589Z,6.10
2017-11-09T05:02:25.961Z,6.00
2017-11-09T05:04:54.359Z,5.90
2017-11-09T05:07:22.727Z,5.80
2017-11-09T05:09:51.322Z,5.80
2017-11-09T05:12:19.695Z,5.80
2017-11-09T05:14:48.061Z,5.90
2017-11-09T05:17:16.460Z,5.90
2017-11-09T05:19:44.828Z,6.00
2017-11-09T05:22:13.628Z,6.10
2017-11-09T05:24:42.000Z,6.00
2017-11-09T05:27:10.368Z,5.90
2017-11-09T05:29:38.768Z,6.00
2017-11-09T05:32:07.134Z,5.90
2017-11-09T05:34:35.719Z,5.90
2017-11-09T05:37:04.088Z,6.10
2017-11-09T05:39:32.467Z,6.30
2017-11-09T05:42:00.872Z,6.30
2017-11-09T05:44:29.250Z,6.20
2017-11-09T05:46:57.916Z,6.30
2017-11-09T05:49:26.303Z,6.10
2017-11-09T05:51:54.684Z,6.10
2017-11-09T05:54:23.080Z,6.10
2017-11-09T05:56:51.454Z,6.20
2017-11-09T05:59:20.124Z,6.10
2017-11-09T06:01:48.515Z,6.00
2017-11-09T06:04:16.895Z,6.00
2017-11-09T06:06:45.304Z,5.90
2017-11-09T06:09:14.447Z,5.90
2017-11-09T06:11:42.864Z,5.90
2017-11-09T06:14:11.244Z,6.00
2017-11-09T06:16:39.614Z,6.00
2017-11-09T06:19:08.001Z,6.00
2017-11-09T06:21:36.369Z,6.10
2017-11-09T06:24:05.041Z,6.10
2017-11-09T06:26:33.417Z,6.10
2017-11-09T06:29:01.788Z,6.10
2017-11-09T06:31:30.183Z,6.10
2017-11-09T06:33:58.559Z,6.20
2017-11-09T06:36:27.230Z,6.20
2017-11-09T06:38:55.595Z,6.20
2017-11-09T06:41:23.963Z,6.20
2017-11-09T06:43:52.387Z,6.30
2017-11-09T06:46:20.761Z,6.20
2017-11-09T06:48:49.320Z,6.30
2017-11-09T06:51:17.683Z,6.30
2017-11-09T06:53:46.098Z,6.40
2017-11-09T06:56:14.484Z,6.40
2017-11-09T06:58:42.862Z,6.40
2017-11-09T07:01:11.286Z,6.40
2017-11-09T07:03:40.416Z,6.40
2017-11-09T07:06:08.784Z,6.40
2017-11-09T07:08:37.174Z,6.40
2017-11-09T07:11:05.542Z,6.40
2017-11-09T07:13:33.949Z,6.50
2017-11-09T07:16:02.322Z,6.50
2017-11-09T07:18:30.701Z,6.40
2017-11-09T07:20:59.099Z,6.50
2017-11-09T07:23:27.480Z,6.40
2017-11-09T07:25:56.003Z,6.50
2017-11-09T07:28:24.370Z,6.50
2017-11-09T07:30:52.787Z,6.60
2017-11-09T07:33:21.196Z,6.50
2017-11-09T07:35:49.583Z,6.60
2017-11-09T07:38:18.308Z,6.70
2017-11-09T07:40:46.676Z,6.70
2017-11-09T07:43:15.091Z,6.70
2017-11-09T07:45:43.488Z,6.70
2017-11-09T07:48:11.860Z,6.70
2017-11-09T07:50:40.290Z,6.80
2017-11-09T07:53:08.660Z,6.90
2017-11-09T07:55:37.803Z,6.90
2017-11-09T07:58:06.212Z,6.90
2017-11-09T08:00:34.582Z,6.90
2017-11-09T08:03:02.998Z,6.80
2017-11-09T08:05:31.375Z,6.80
2017-11-09T08:07:59.747Z,6.80
2017-11-09T08:10:28.155Z,7.00
2017-11-09T08:12:56.522Z,6.90
2017-11-09T08:15:25.016Z,6.90
2017-11-09T08:17:53.389Z,7.00
2017-11-09T08:20:21.758Z,7.00
2017-11-09T08:22:50.152Z,7.10
2017-11-09T08:25:26.914Z,7.10
2017-11-09T08:27:58.696Z,7.10
2017-11-09T08:30:33.181Z,7.10
2017-11-09T08:33:05.071Z,7.20
2017-11-09T08:35:33.448Z,7.00
2017-11-09T08:38:01.856Z,7.10
2017-11-09T08:40:30.254Z,7.10
2017-11-09T08:42:58.627Z,7.40
2017-11-09T08:45:27.273Z,7.50
2017-11-09T08:47:55.656Z,7.50
2017-11-09T08:50:24.020Z,7.70
2017-11-09T08:52:52.468Z,7.80
2017-11-09T08:55:21.607Z,8.00
2017-11-09T08:57:50.108Z,7.90
2017-11-09T09:00:18.522Z,8.00
2017-11-09T09:02:47.670Z,7.90
2017-11-09T09:05:16.063Z,7.90
2017-11-09T09:07:44.584Z,8.10
2017-11-09T09:10:13.193Z,8.00
2017-11-09T09:12:41.573Z,7.90
2017-11-09T09:15:09.975Z,7.80
2017-11-09T09:17:38.379Z,7.90
2017-11-09T09:20:06.756Z,8.00
2017-11-09T09:25:35.304Z,8.10
2017-11-09T09:28:03.709Z,8.20
2017-11-09T09:30:32.496Z,8.40
2017-11-09T09:33:06.939Z,8.70
2017-11-09T09:35:38.567Z,8.80
2017-11-09T09:38:16.911Z,8.80
2017-11-09T09:40:47.762Z,9.00
2017-11-09T09:43:16.168Z,9.10
2017-11-09T09:45:44.576Z,9.20
2017-11-09T09:48:12.957Z,9.30
2017-11-09T09:50:41.359Z,9.10
2017-11-09T09:53:11.239Z,9.20
2017-11-09T09:55:39.832Z,9.20
2017-11-09T09:58:08.217Z,9.20
2017-11-09T10:00:36.603Z,9.40
2017-11-09T10:03:04.996Z,9.40
2017-11-09T10:05:33.373Z,9.30
2017-11-09T10:08:02.574Z,9.70
2017-11-09T10:10:30.956Z,9.70
2017-11-09T10:12:59.333Z,9.60
2017-11-09T10:15:27.736Z,9.40
2017-11-09T10:17:56.887Z,9.40
2017-11-09T10:20:25.552Z,9.40
2017-11-09T10:22:53.929Z,9.60
2017-11-09T10:25:22.303Z,9.80
2017-11-09T10:27:50.710Z,10.20
2017-11-09T10:30:19.084Z,10.20
2017-11-09T10:32:47.763Z,10.20
2017-11-09T10:35:16.155Z,9.90
2017-11-09T10:37:44.531Z,9.90
2017-11-09T10:40:13.003Z,9.80
2017-11-09T10:42:41.384Z,9.80
2017-11-09T10:45:10.054Z,9.80
2017-11-09T10:47:38.436Z,9.80
2017-11-09T10:50:06.805Z,9.80
2017-11-09T10:52:35.211Z,10.00
2017-11-09T10:55:03.594Z,10.20
2017-11-09T10:57:31.987Z,9.70
2017-11-09T11:00:01.147Z,9.60
2017-11-09T11:02:29.532Z,9.60
2017-11-09T11:04:57.922Z,9.70
2017-11-09T11:07:26.315Z,9.90
2017-11-09T11:09:54.703Z,10.10
2017-11-09T11:12:23.104Z,10.00
2017-11-09T11:14:52.277Z,10.20
2017-11-09T11:17:20.925Z,10.10
2017-11-09T11:19:49.297Z,9.70
2017-11-09T11:22:17.667Z,9.80
2017-11-09T11:24:46.056Z,9.70
2017-11-09T11:27:14.432Z,9.50
2017-11-09T11:29:43.122Z,9.60
2017-11-09T11:32:11.510Z,9.60
2017-11-09T11:34:39.882Z,9.60
2017-11-09T11:37:14.709Z,9.50
2017-11-09T11:39:43.092Z,9.60
2017-11-09T11:42:11.675Z,9.60
2017-11-09T11:44:40.073Z,9.60
2017-11-09T11:47:08.453Z,9.60
2017-11-09T11:49:36.856Z,9.70
2017-11-09T11:52:05.991Z,9.80
2017-11-09T11:54:34.416Z,9.80
2017-11-09T11:57:02.796Z,9.70
2017-11-09T11:59:31.162Z,9.70
2017-11-09T12:01:59.593Z,9.40
2017-11-09T12:04:27.974Z,9.40
2017-11-09T12:06:56.488Z,9.40
2017-11-09T12:09:24.861Z,9.40
2017-11-09T12:11:53.241Z,9.40
2017-11-09T12:14:21.635Z,9.40
2017-11-09T12:16:50.014Z,9.30
2017-11-09T12:19:18.434Z,9.20
2017-11-09T12:21:46.807Z,9.00
2017-11-09T12:24:16.022Z,9.30
2017-11-09T12:26:44.462Z,9.20
2017-11-09T12:29:14.808Z,9.40
2017-11-09T12:31:44.457Z,9.30
2017-11-09T12:34:12.836Z,9.30
2017-11-09T12:36:41.214Z,9.30
2017-11-09T12:39:09.618Z,9.50
2017-11-09T12:41:37.994Z,9.30
2017-11-09T12:44:06.419Z,9.40
2017-11-09T12:46:35.556Z,9.10
2017-11-09T12:49:03.939Z,9.10
2017-11-09T12:51:32.337Z,9.10
2017-11-09T12:54:00.714Z,9.20
2017-11-09T12:56:29.376Z,9.30
2017-11-09T12:58:57.813Z,9.20
2017-11-09T13:01:26.967Z,9.20
2017-11-09T13:03:55.355Z,9.20
2017-11-09T13:06:23.729Z,9.10
2017-11-09T13:08:52.395Z,9.00
2017-11-09T13:11:20.783Z,8.90
2017-11-09T13:13:49.174Z,9.00
2017-11-09T13:16:17.567Z,8.90
2017-11-09T13:18:45.944Z,8.80
2017-11-09T13:21:14.583Z,8.90
2017-11-09T13:23:42.993Z,8.80
2017-11-09T13:26:11.378Z,8.80
2017-11-09T13:28:39.778Z,8.70
2017-11-09T13:31:08.915Z,9.00
2017-11-09T13:33:39.257Z,9.00
2017-11-09T13:36:07.640Z,9.00
2017-11-09T13:38:36.128Z,9.00
2017-11-09T13:41:04.531Z,9.00
2017-11-09T13:43:33.670Z,9.00
2017-11-09T13:46:02.191Z,9.00
2017-11-09T13:48:30.581Z,9.00
2017-11-09T13:50:59.723Z,8.90
2017-11-09T13:53:28.116Z,8.80
2017-11-09T13:55:56.493Z,8.90
2017-11-09T13:58:25.275Z,8.90
2017-11-09T14:00:55.477Z,8.80
2017-11-09T14:03:23.852Z,8.70
2017-11-09T14:05:52.262Z,8.60
2017-11-09T14:08:20.637Z,8.50
2017-11-09T14:10:49.052Z,8.50
2017-11-09T14:13:17.424Z,8.60
2017-11-09T14:15:45.813Z,8.50
2017-11-09T14:18:14.228Z,8.40
2017-11-09T14:20:42.604Z,8.50
2017-11-09T14:23:11.005Z,8.50
2017-11-09T14:25:39.376Z,8.60
2017-11-09T14:28:07.759Z,8.60
2017-11-09T14:30:36.260Z,8.70
2017-11-09T14:33:04.631Z,8.70
2017-11-09T14:35:33.307Z,8.60
2017-11-09T14:38:01.695Z,8.50
2017-11-09T14:40:30.056Z,8.40
2017-11-09T14:42:58.493Z,8.30
2017-11-09T14:45:27.651Z,8.30
2017-11-09T14:47:56.332Z,8.30
2017-11-09T14:50:24.700Z,8.30
2017-11-09T14:52:53.067Z,8.40
2017-11-09T14:55:21.458Z,8.40
2017-11-09T14:57:49.904Z,8.50
2017-11-09T15:00:19.344Z,8.40
2017-11-09T15:02:47.717Z,8.40
2017-11-09T15:05:16.103Z,8.30
2017-11-09T15:07:44.492Z,8.20
2017-11-09T15:10:12.867Z,8.30
2017-11-09T15:12:41.380Z,8.30
2017-11-09T15:15:09.784Z,8.20
2017-11-09T15:17:38.943Z,8.20
2017-11-09T15:20:07.357Z,8.20
2017-11-09T15:22:35.750Z,8.20
2017-11-09T15:25:04.163Z,8.20
2017-11-09T15:27:32.525Z,8.10
2017-11-09T15:30:00.930Z,8.00
2017-11-09T15:32:34.271Z,8.10
2017-11-09T15:35:03.426Z,8.20
2017-11-09T15:37:32.087Z,8.20
2017-11-09T15:40:00.574Z,8.10
2017-11-09T15:42:28.943Z,8.40
2017-11-09T15:44:57.343Z,8.30
2017-11-09T15:47:25.713Z,8.00
2017-11-09T15:49:54.125Z,7.90
2017-11-09T15:52:22.515Z,7.90
2017-11-09T15:54:51.648Z,7.90
2017-11-09T15:57:20.042Z,7.90
2017-11-09T15:59:48.642Z,7.90
2017-11-09T16:02:17.310Z,7.90
2017-11-09T16:04:45.693Z,7.90
2017-11-09T16:07:18.254Z,7.80
2017-11-09T16:09:47.278Z,7.80
2017-11-09T16:12:15.812Z,7.80
2017-11-09T16:14:44.207Z,7.80
2017-11-09T16:17:12.599Z,7.90
2017-11-09T16:19:41.252Z,8.00
2017-11-09T16:22:09.628Z,8.00
2017-11-09T16:24:38.001Z,8.10
2017-11-09T16:27:06.401Z,8.10
2017-11-09T16:29:34.769Z,8.10
2017-11-09T16:32:03.579Z,8.20
2017-11-09T16:34:31.956Z,8.20
2017-11-09T16:37:00.347Z,8.00
2017-11-09T16:39:28.747Z,7.90
2017-11-09T16:41:57.659Z,7.90
2017-11-09T16:44:26.256Z,7.90
2017-11-09T16:46:55.532Z,8.10
2017-11-09T16:49:24.758Z,7.90
2017-11-09T16:51:53.193Z,7.90
2017-11-09T16:54:21.571Z,7.90
2017-11-09T16:56:49.960Z,7.70
2017-11-09T16:59:20.627Z,7.80
2017-11-09T17:01:49.093Z,7.80
2017-11-09T17:04:18.492Z,7.70
2017-11-09T17:06:47.732Z,7.70
2017-11-09T17:09:16.178Z,7.70
2017-11-09T17:11:44.575Z,7.60
2017-11-09T17:14:13.385Z,7.70
2017-11-09T17:16:41.759Z,7.60
2017-11-09T17:19:10.352Z,7.60
2017-11-09T17:21:38.815Z,7.60
2017-11-09T17:24:07.455Z,7.60
2017-11-09T17:26:36.749Z,7.70
2017-11-09T17:29:05.973Z,7.70
2017-11-09T17:31:34.424Z,7.70
2017-11-09T17:34:03.039Z,7.60
2017-11-09T17:36:31.546Z,7.60
2017-11-09T17:39:00.333Z,7.60
2017-11-09T17:41:28.737Z,7.50
2017-11-09T17:43:59.685Z,7.50
2017-11-09T17:46:28.133Z,7.40
2017-11-09T17:48:56.615Z,7.40
2017-11-09T17:51:34.023Z,7.40
2017-11-09T17:54:02.765Z,7.40
2017-11-09T17:56:31.324Z,7.40
2017-11-09T17:59:09.282Z,7.30
2017-11-09T18:01:38.490Z,7.40
2017-11-09T18:04:06.898Z,7.40
2017-11-09T18:06:35.283Z,7.50
2017-11-09T18:09:03.715Z,7.40
2017-11-09T18:11:32.122Z,7.40
2017-11-09T18:14:00.652Z,7.40
2017-11-09T18:16:29.027Z,7.30
2017-11-09T18:18:57.405Z,7.40
2017-11-09T18:21:25.830Z,7.50
2017-11-09T18:23:56.040Z,7.40
2017-11-09T18:26:24.882Z,7.60
2017-11-09T18:28:54.336Z,7.50
2017-11-09T18:31:37.352Z,7.50
2017-11-09T18:34:05.933Z,7.50
2017-11-09T18:36:34.354Z,7.40
2017-11-09T18:39:02.793Z,7.40
2017-11-09T18:41:31.245Z,7.50
2017-11-09T18:43:59.724Z,7.40
2017-11-09T18:46:28.173Z,7.30
2017-11-09T18:48:56.840Z,7.30
2017-11-09T18:51:25.455Z,7.30
2017-11-09T18:53:54.611Z,7.20
2017-11-09T18:56:23.014Z,7.20
2017-11-09T18:58:51.389Z,7.20
2017-11-09T19:01:26.648Z,7.20
2017-11-09T19:03:55.166Z,7.20
2017-11-09T19:06:23.593Z,7.20
2017-11-09T19:08:52.022Z,7.20
2017-11-09T19:11:20.409Z,7.20
2017-11-09T19:13:48.956Z,7.20
2017-11-09T19:16:17.576Z,7.30
2017-11-09T19:18:46.386Z,7.30
2017-11-09T19:21:15.687Z,7.30
2017-11-09T19:23:44.065Z,7.20
2017-11-09T19:26:12.503Z,7.30
2017-11-09T19:28:40.903Z,7.20
2017-11-09T19:31:09.316Z,7.30
2017-11-09T19:33:37.764Z,7.30
2017-11-09T19:36:06.158Z,7.40
2017-11-09T19:38:34.665Z,7.30
2017-11-09T19:41:03.046Z,7.20
2017-11-09T19:43:31.416Z,7.20
2017-11-09T19:45:59.834Z,7.20
2017-11-09T19:48:28.384Z,7.10
2017-11-09T19:50:56.871Z,7.10
2017-11-09T19:53:25.344Z,7.10
2017-11-09T19:55:54.521Z,7.20
2017-11-09T19:58:23.061Z,7.20
2017-11-09T20:00:51.670Z,7.30
2017-11-09T20:03:20.802Z,7.30
2017-11-09T20:05:49.344Z,7.40
2017-11-09T20:08:17.772Z,7.20
2017-11-09T20:10:46.367Z,7.20
2017-11-09T20:13:14.927Z,7.10
2017-11-09T20:15:43.484Z,7.10
2017-11-09T20:18:11.847Z,7.10
2017-11-09T20:20:40.212Z,7.10
2017-11-09T20:23:08.667Z,7.10
2017-11-09T20:25:38.025Z,7.00
2017-11-09T20:28:07.525Z,7.00
2017-11-09T20:30:36.001Z,7.00
2017-11-09T20:33:04.385Z,7.00
2017-11-09T20:35:33.166Z,7.00
2017-11-09T20:38:01.578Z,7.00
2017-11-09T20:40:30.400Z,7.00
2017-11-09T20:42:58.928Z,7.10
2017-11-09T20:45:28.709Z,7.20
2017-11-09T20:47:57.426Z,7.20
2017-11-09T20:50:25.805Z,7.20
2017-11-09T20:52:54.544Z,7.20
2017-11-09T20:55:23.687Z,7.20
2017-11-09T20:57:52.214Z,7.10
2017-11-09T21:00:21.575Z,7.10
2017-11-09T21:02:50.515Z,7.10
2017-11-09T21:05:19.432Z,7.30
2017-11-09T21:07:48.505Z,7.20
2017-11-09T21:10:17.228Z,7.10
2017-11-09T21:12:45.705Z,7.10
2017-11-09T21:15:14.094Z,7.10
2017-11-09T21:17:42.809Z,7.10
2017-11-09T21:20:11.298Z,7.00
2017-11-09T21:22:40.621Z,7.10
2017-11-09T21:25:09.033Z,7.10
2017-11-09T21:27:37.412Z,7.10
2017-11-09T21:30:06.188Z,7.20
2017-11-09T21:32:34.552Z,7.20
2017-11-09T21:35:03.308Z,7.20
2017-11-09T21:37:31.754Z,7.20
2017-11-09T21:40:00.186Z,7.10
2017-11-09T21:42:28.607Z,7.00
2017-11-09T21:44:57.041Z,7.00
2017-11-09T21:47:25.453Z,7.10
2017-11-09T21:49:53.855Z,7.10
2017-11-09T21:52:22.225Z,7.10
2017-11-09T21:54:50.906Z,7.30
2017-11-09T21:57:19.359Z,7.20
2017-11-09T21:59:47.737Z,7.30
2017-11-09T22:02:16.135Z,7.10
2017-11-09T22:04:44.521Z,7.10
2017-11-09T22:07:13.213Z,7.10
2017-11-09T22:09:41.615Z,7.00
2017-11-09T22:12:10.002Z,7.10
2017-11-09T22:14:39.200Z,6.90
2017-11-09T22:17:07.569Z,6.90
2017-11-09T22:19:36.331Z,6.90
2017-11-09T22:22:04.712Z,6.90
2017-11-09T22:24:33.084Z,6.90
2017-11-09T22:27:01.478Z,6.90
2017-11-09T22:29:29.843Z,6.80
2017-11-09T22:31:58.567Z,6.80
2017-11-09T22:34:26.939Z,6.80
2017-11-09T22:36:55.320Z,6.90
2017-11-09T22:39:23.707Z,7.00
2017-11-09T22:41:52.860Z,7.10
2017-11-09T22:44:21.545Z,7.00
2017-11-09T22:46:49.908Z,7.10
2017-11-09T22:49:18.275Z,7.00
2017-11-09T22:51:46.669Z,7.00
2017-11-09T22:54:15.076Z,7.00
2017-11-09T22:56:43.600Z,6.80
2017-11-09T22:59:11.980Z,6.80
2017-11-09T23:01:40.351Z,6.80
2017-11-09T23:04:09.560Z,7.10
2017-11-09T23:06:37.938Z,7.10
2017-11-09T23:09:06.653Z,7.00
2017-11-09T23:11:35.036Z,7.00
2017-11-09T23:14:03.411Z,6.90
2017-11-09T23:16:31.817Z,6.90
2017-11-09T23:19:00.199Z,6.80
2017-11-09T23:21:28.851Z,6.80
2017-11-09T23:23:57.235Z,6.80
2017-11-09T23:26:25.608Z,6.90
2017-11-09T23:28:54.005Z,7.00
2017-11-09T23:31:22.377Z,7.00
2017-11-09T23:33:50.875Z,7.00
2017-11-09T23:36:19.239Z,7.10
2017-11-09T23:38:47.613Z,7.00
2017-11-09T23:41:16.012Z,6.90
2017-11-09T23:43:44.388Z,7.00
2017-11-09T23:46:12.819Z,7.00
2017-11-09T23:48:41.200Z,7.00
2017-11-09T23:51:09.576Z,7.00
2017-11-09T23:53:37.988Z,7.20
2017-11-09T23:56:06.422Z,7.10
2017-11-09T23:58:35.960Z,7.10
